createdAt,value
2022-08-20T00:01:32.877Z,15.47
2022-08-20T00:04:03.302Z,15.53
2022-08-20T00:06:35.098Z,15.29
2022-08-20T00:09:05.906Z,15.36
2022-08-20T00:11:36.502Z,15.53
2022-08-20T00:14:08.692Z,15.24
2022-08-20T00:16:40.322Z,15.62
2022-08-20T00:19:11.346Z,15.32
2022-08-20T00:21:41.085Z,15.55
2022-08-20T00:24:12.447Z,15.57
2022-08-20T00:26:51.829Z,15.42
2022-08-20T00:29:23.567Z,14.35
2022-08-20T00:31:53.726Z,14.16
2022-08-20T00:34:23.711Z,14.39
2022-08-20T00:36:53.658Z,14.74
2022-08-20T00:39:23.690Z,14.74
2022-08-20T00:41:54.179Z,14.87
2022-08-20T00:44:25.818Z,14.50
2022-08-20T00:46:56.467Z,13.44
2022-08-20T00:49:30.219Z,12.20
2022-08-20T00:52:08.622Z,12.46
2022-08-20T00:55:07.177Z,12.95
2022-08-20T00:57:44.577Z,13.71
2022-08-20T01:00:38.767Z,14.03
2022-08-20T01:03:12.449Z,13.80
2022-08-20T01:05:49.086Z,12.97
2022-08-20T01:08:22.027Z,13.71
2022-08-20T01:10:54.950Z,14.04
2022-08-20T01:13:26.829Z,13.75
2022-08-20T01:15:58.571Z,14.10
2022-08-20T01:18:30.120Z,14.14
2022-08-20T01:21:04.401Z,14.21
2022-08-20T01:23:44.317Z,13.98
2022-08-20T01:26:28.148Z,14.22
2022-08-20T01:29:03.095Z,14.30
2022-08-20T01:31:37.489Z,14.33
2022-08-20T01:34:12.181Z,14.02
2022-08-20T01:36:54.080Z,14.24
2022-08-20T01:39:27.860Z,14.39
2022-08-20T01:42:26.192Z,14.23
2022-08-20T01:44:56.630Z,14.21
2022-08-20T01:47:38.722Z,13.99
2022-08-20T01:50:19.341Z,13.31
2022-08-20T01:52:59.236Z,13.62
2022-08-20T01:55:29.641Z,13.87
2022-08-20T01:58:00.459Z,14.11
2022-08-20T02:00:31.195Z,14.02
2022-08-20T02:03:01.211Z,13.55
2022-08-20T02:05:33.692Z,13.45
2022-08-20T02:08:04.486Z,13.64
2022-08-20T02:10:35.189Z,13.89
2022-08-20T02:13:06.882Z,13.96
2022-08-20T02:15:39.894Z,13.51
2022-08-20T02:18:17.238Z,13.61
2022-08-20T02:20:48.574Z,13.80
2022-08-20T02:23:19.886Z,13.79
2022-08-20T02:25:50.636Z,13.92
2022-08-20T02:28:21.833Z,12.34
2022-08-20T02:30:56.443Z,12.97
2022-08-20T02:33:26.537Z,13.02
2022-08-20T02:35:58.070Z,13.18
2022-08-20T02:38:28.318Z,13.33
2022-08-20T02:40:58.699Z,13.33
2022-08-20T02:43:28.880Z,13.34
2022-08-20T02:46:00.749Z,13.41
2022-08-20T02:48:31.593Z,13.46
2022-08-20T02:51:06.175Z,13.48
2022-08-20T02:53:39.905Z,13.32
2022-08-20T02:56:12.096Z,13.62
2022-08-20T02:58:43.377Z,13.66
2022-08-20T03:01:18.210Z,13.77
2022-08-20T03:03:48.338Z,13.81
2022-08-20T03:06:18.611Z,13.76
2022-08-20T03:08:48.681Z,13.72
2022-08-20T03:11:20.206Z,13.54
2022-08-20T03:13:50.332Z,13.32
2022-08-20T03:16:20.850Z,13.13
2022-08-20T03:18:52.053Z,12.86
2022-08-20T03:21:22.990Z,13.27
2022-08-20T03:23:53.066Z,13.38
2022-08-20T03:26:23.558Z,13.43
2022-08-20T03:28:53.679Z,13.58
2022-08-20T03:31:24.358Z,13.62
2022-08-20T03:33:54.508Z,13.53
2022-08-20T03:36:28.432Z,13.59
2022-08-20T03:39:03.040Z,13.49
2022-08-20T03:41:33.422Z,13.61
2022-08-20T03:44:04.114Z,13.50
2022-08-20T03:46:35.154Z,13.08
2022-08-20T03:49:07.085Z,13.21
2022-08-20T03:51:57.109Z,13.44
2022-08-20T03:54:31.919Z,13.53
2022-08-20T03:57:12.606Z,13.55
2022-08-20T03:59:45.664Z,13.34
2022-08-20T04:02:20.058Z,12.75
2022-08-20T04:04:50.258Z,12.70
2022-08-20T04:07:28.569Z,12.38
2022-08-20T04:09:59.253Z,12.06
2022-08-20T04:12:29.302Z,9.22
2022-08-20T04:14:59.828Z,9.14
2022-08-20T04:17:33.822Z,9.66
2022-08-20T04:20:07.426Z,10.46
2022-08-20T04:22:39.582Z,10.55
2022-08-20T04:25:10.602Z,11.60
2022-08-20T04:27:47.347Z,11.79
2022-08-20T04:30:20.873Z,12.16
2022-08-20T04:32:51.078Z,12.36
2022-08-20T04:35:22.222Z,12.62
2022-08-20T04:38:00.530Z,12.70
2022-08-20T04:40:51.958Z,12.55
2022-08-20T04:43:29.038Z,11.97
2022-08-20T04:46:02.408Z,11.74
2022-08-20T04:48:32.885Z,11.61
2022-08-20T04:51:04.330Z,11.58
2022-08-20T04:53:34.981Z,11.57
2022-08-20T04:56:05.658Z,11.60
2022-08-20T04:58:39.126Z,11.43
2022-08-20T05:01:12.089Z,11.39
2022-08-20T05:03:43.546Z,11.69
2022-08-20T05:06:14.143Z,11.81
2022-08-20T05:08:44.978Z,12.13
2022-08-20T05:11:34.110Z,11.60
2022-08-20T05:14:10.311Z,11.19
2022-08-20T05:16:42.038Z,11.20
2022-08-20T05:19:14.740Z,9.09
2022-08-20T05:21:45.551Z,9.40
2022-08-20T05:24:15.792Z,10.30
2022-08-20T05:26:46.339Z,11.00
2022-08-20T05:29:16.920Z,11.36
2022-08-20T05:31:47.471Z,11.55
2022-08-20T05:34:17.379Z,11.78
2022-08-20T05:36:51.182Z,11.65
2022-08-20T05:39:23.574Z,11.52
2022-08-20T05:41:54.188Z,11.65
2022-08-20T05:44:25.134Z,11.31
2022-08-20T05:46:55.609Z,11.17
2022-08-20T05:49:25.812Z,11.24
2022-08-20T05:51:56.057Z,11.69
2022-08-20T05:54:25.774Z,11.94
2022-08-20T05:56:56.566Z,12.16
2022-08-20T05:59:28.676Z,12.19
2022-08-20T06:01:58.798Z,12.15
2022-08-20T06:04:33.258Z,12.11
2022-08-20T06:07:08.139Z,12.06
2022-08-20T06:09:40.560Z,11.82
2022-08-20T06:12:12.374Z,11.07
2022-08-20T06:14:42.249Z,10.83
2022-08-20T06:17:16.140Z,10.84
2022-08-20T06:19:48.679Z,10.84
2022-08-20T06:22:27.151Z,10.96
2022-08-20T06:24:57.453Z,10.96
2022-08-20T06:27:27.502Z,10.97
2022-08-20T06:29:58.042Z,10.48
2022-08-20T06:32:32.393Z,10.61
2022-08-20T06:35:05.531Z,10.58
2022-08-20T06:37:39.493Z,10.59
2022-08-20T06:40:16.530Z,10.53
2022-08-20T06:42:48.712Z,10.53
2022-08-20T06:45:26.739Z,10.62
2022-08-20T06:47:59.270Z,10.58
2022-08-20T06:50:47.284Z,10.60
2022-08-20T06:53:24.235Z,10.92
2022-08-20T06:55:57.102Z,10.83
2022-08-20T06:58:37.114Z,10.80
2022-08-20T07:01:11.096Z,11.13
2022-08-20T07:03:54.420Z,10.85
2022-08-20T07:06:27.084Z,11.26
2022-08-20T07:08:57.461Z,11.21
2022-08-20T07:11:28.917Z,11.36
2022-08-20T07:13:59.772Z,11.31
2022-08-20T07:16:30.378Z,11.09
2022-08-20T07:19:00.260Z,10.39
2022-08-20T07:21:31.519Z,10.88
2022-08-20T07:24:01.818Z,10.67
2022-08-20T07:26:32.745Z,10.87
2022-08-20T07:29:02.872Z,11.01
2022-08-20T07:31:51.581Z,11.28
2022-08-20T07:34:21.653Z,10.76
2022-08-20T07:36:57.698Z,11.12
2022-08-20T07:39:28.501Z,10.88
2022-08-20T07:42:08.307Z,11.06
2022-08-20T07:44:40.059Z,11.32
2022-08-20T07:47:10.674Z,10.83
2022-08-20T07:49:41.799Z,10.20
2022-08-20T07:52:14.299Z,10.59
2022-08-20T07:54:45.541Z,10.19
2022-08-20T07:57:18.344Z,9.70
2022-08-20T07:59:49.891Z,9.14
2022-08-20T08:02:23.968Z,9.03
2022-08-20T08:04:54.527Z,8.27
2022-08-20T08:07:27.491Z,8.23
2022-08-20T08:09:58.787Z,7.78
2022-08-20T08:12:38.199Z,7.82
2022-08-20T08:15:12.502Z,7.28
2022-08-20T08:17:45.531Z,7.72
2022-08-20T08:20:16.198Z,6.62
2022-08-20T08:22:46.775Z,6.39
2022-08-20T08:25:18.354Z,7.17
2022-08-20T08:27:49.966Z,8.66
2022-08-20T08:30:19.620Z,9.82
2022-08-20T08:33:07.942Z,10.21
2022-08-20T08:35:41.453Z,9.81
2022-08-20T08:38:14.792Z,10.01
2022-08-20T08:40:45.462Z,10.05
2022-08-20T08:43:21.890Z,9.90
2022-08-20T08:46:03.367Z,9.67
2022-08-20T08:48:38.343Z,9.87
2022-08-20T08:51:13.015Z,10.34
2022-08-20T08:53:54.648Z,10.42
2022-08-20T08:56:29.051Z,10.53
2022-08-20T08:59:11.591Z,10.22
2022-08-20T09:01:53.997Z,10.81
2022-08-20T09:04:34.706Z,10.88
2022-08-20T09:07:08.586Z,10.84
2022-08-20T09:09:42.579Z,10.52
2022-08-20T09:12:16.261Z,10.85
2022-08-20T09:14:49.125Z,10.98
2022-08-20T09:17:23.086Z,11.14
2022-08-20T09:19:53.496Z,10.68
2022-08-20T09:22:27.116Z,10.61
2022-08-20T09:24:58.204Z,10.81
2022-08-20T09:27:28.323Z,11.08
2022-08-20T09:29:58.740Z,11.18
2022-08-20T09:32:28.745Z,11.10
2022-08-20T09:35:00.339Z,11.07
2022-08-20T09:37:37.300Z,10.90
2022-08-20T09:40:09.839Z,11.11
2022-08-20T09:42:41.717Z,10.98
2022-08-20T09:45:13.553Z,10.88
2022-08-20T09:48:10.309Z,10.57
2022-08-20T09:50:36.902Z,10.21
2022-08-20T09:53:07.733Z,10.69
2022-08-20T09:55:41.678Z,10.48
2022-08-20T09:58:39.449Z,10.24
2022-08-20T10:01:16.247Z,9.24
2022-08-20T10:03:49.882Z,9.37
2022-08-20T10:06:21.584Z,8.98
2022-08-20T10:08:51.745Z,10.01
2022-08-20T10:11:22.279Z,10.29
2022-08-20T10:13:52.334Z,10.30
2022-08-20T10:16:22.148Z,10.70
2022-08-20T10:18:52.576Z,10.93
2022-08-20T10:21:22.711Z,10.88
2022-08-20T10:23:53.162Z,11.04
2022-08-20T10:26:23.226Z,10.14
2022-08-20T10:28:56.079Z,8.02
2022-08-20T10:31:26.124Z,7.86
2022-08-20T10:33:57.823Z,7.68
2022-08-20T10:36:27.846Z,8.62
2022-08-20T10:38:58.337Z,9.79
2022-08-20T10:41:29.426Z,9.69
2022-08-20T10:43:59.814Z,10.24
2022-08-20T10:46:29.822Z,10.64
2022-08-20T10:49:00.239Z,11.13
2022-08-20T10:51:32.592Z,11.47
2022-08-20T10:54:06.307Z,12.63
2022-08-20T10:56:42.310Z,13.56
2022-08-20T10:59:12.176Z,14.13
2022-08-20T11:01:45.694Z,14.59
2022-08-20T11:04:15.715Z,14.83
2022-08-20T11:06:46.087Z,15.42
2022-08-20T11:09:18.924Z,15.91
2022-08-20T11:11:49.329Z,16.42
2022-08-20T11:14:19.533Z,16.90
2022-08-20T11:16:49.903Z,17.49
2022-08-20T11:19:19.899Z,17.99
2022-08-20T11:21:50.275Z,18.32
2022-08-20T11:24:20.563Z,18.46
2022-08-20T11:26:51.566Z,18.28
2022-08-20T11:29:23.844Z,18.48
2022-08-20T11:31:54.246Z,18.49
2022-08-20T11:34:24.322Z,18.56
2022-08-20T11:36:58.062Z,18.63
2022-08-20T11:39:28.880Z,19.06
2022-08-20T11:41:59.280Z,19.05
2022-08-20T11:44:29.305Z,19.77
2022-08-20T11:47:04.732Z,20.10
2022-08-20T11:49:37.158Z,20.61
2022-08-20T11:52:07.889Z,20.59
2022-08-20T11:54:41.642Z,21.29
2022-08-20T11:57:12.134Z,21.50
2022-08-20T11:59:42.129Z,21.66
2022-08-20T12:02:12.727Z,22.13
2022-08-20T12:04:42.755Z,21.83
2022-08-20T12:07:15.347Z,22.14
2022-08-20T12:09:51.017Z,22.29
2022-08-20T12:12:25.181Z,21.51
2022-08-20T12:14:59.939Z,22.03
2022-08-20T12:17:31.934Z,22.78
2022-08-20T12:20:11.175Z,22.69
2022-08-20T12:22:42.485Z,23.31
2022-08-20T12:25:13.352Z,23.51
2022-08-20T12:27:44.215Z,24.15
2022-08-20T12:30:18.640Z,24.98
2022-08-20T12:32:49.500Z,25.01
2022-08-20T12:35:20.750Z,26.07
2022-08-20T12:37:51.695Z,25.30
2022-08-20T12:40:31.859Z,26.21
2022-08-20T12:43:04.142Z,25.13
2022-08-20T12:45:37.132Z,25.99
2022-08-20T12:48:11.934Z,26.95
2022-08-20T12:50:45.055Z,27.45
2022-08-20T12:53:15.636Z,26.76
2022-08-20T12:55:45.876Z,27.55
2022-08-20T12:58:16.421Z,28.14
2022-08-20T13:00:50.615Z,28.01
2022-08-20T13:03:22.075Z,27.92
2022-08-20T13:05:52.249Z,27.74
2022-08-20T13:08:22.763Z,28.56
2022-08-20T13:10:52.859Z,29.17
2022-08-20T13:13:23.224Z,28.58
2022-08-20T13:15:52.567Z,28.70
2022-08-20T13:18:22.575Z,28.75
2022-08-20T13:20:53.003Z,29.53
2022-08-20T13:23:23.056Z,29.78
2022-08-20T13:25:53.679Z,30.23
2022-08-20T13:28:23.703Z,30.58
2022-08-20T13:30:54.062Z,30.18
2022-08-20T13:33:24.107Z,30.24
2022-08-20T13:35:54.487Z,30.34
2022-08-20T13:38:25.666Z,30.99
2022-08-20T13:40:56.140Z,31.01
2022-08-20T13:43:26.167Z,31.48
2022-08-20T13:45:56.655Z,30.81
2022-08-20T13:48:26.722Z,29.09
2022-08-20T13:50:57.154Z,31.20
2022-08-20T13:53:28.203Z,28.51
2022-08-20T13:55:58.614Z,29.70
2022-08-20T13:58:28.646Z,29.09
2022-08-20T14:00:59.057Z,29.80
2022-08-20T14:03:29.115Z,28.02
2022-08-20T14:05:59.486Z,28.17
2022-08-20T14:08:29.759Z,27.99
2022-08-20T14:11:00.751Z,28.44
2022-08-20T14:13:30.865Z,29.36
2022-08-20T14:16:01.799Z,30.21
2022-08-20T14:18:32.034Z,27.21
2022-08-20T14:21:02.471Z,29.79
2022-08-20T14:23:32.498Z,30.42
2022-08-20T14:26:09.720Z,29.97
2022-08-20T14:28:39.687Z,29.30
2022-08-20T14:31:10.108Z,26.96
2022-08-20T14:33:44.449Z,28.80
2022-08-20T14:36:18.305Z,28.14
2022-08-20T14:38:48.390Z,27.52
2022-08-20T14:41:18.215Z,28.13
2022-08-20T14:43:48.687Z,28.68
2022-08-20T14:46:18.648Z,29.21
2022-08-20T14:48:51.755Z,28.58
2022-08-20T14:51:23.432Z,28.05
2022-08-20T14:53:53.892Z,27.39
2022-08-20T14:56:24.591Z,28.40
2022-08-20T14:58:54.739Z,29.56
2022-08-20T15:01:25.344Z,29.46
2022-08-20T15:03:55.531Z,28.52
2022-08-20T15:06:26.029Z,27.87
2022-08-20T15:08:56.194Z,29.67
2022-08-20T15:11:28.081Z,26.35
2022-08-20T15:14:02.499Z,26.38
2022-08-20T15:16:33.875Z,27.01
2022-08-20T15:19:07.266Z,28.02
2022-08-20T15:21:45.281Z,28.26
2022-08-20T15:24:19.306Z,28.49
2022-08-20T15:26:50.126Z,30.00
2022-08-20T15:29:23.196Z,30.94
2022-08-20T15:31:54.070Z,31.54
2022-08-20T15:34:24.314Z,29.73
2022-08-20T15:36:54.809Z,28.92
2022-08-20T15:39:25.172Z,29.31
2022-08-20T15:41:55.678Z,30.55
2022-08-20T15:44:25.712Z,31.09
2022-08-20T15:46:56.214Z,32.72
2022-08-20T15:49:26.479Z,30.60
2022-08-20T15:51:57.101Z,28.74
2022-08-20T15:54:28.813Z,31.28
2022-08-20T15:57:08.364Z,31.68
2022-08-20T16:00:08.500Z,32.83
2022-08-20T16:03:03.049Z,30.15
2022-08-20T16:06:13.717Z,28.45
2022-08-20T16:09:08.975Z,28.38
2022-08-20T16:11:46.838Z,29.18
2022-08-20T16:14:26.974Z,29.69
2022-08-20T16:17:06.882Z,28.11
2022-08-20T16:19:59.426Z,27.19
2022-08-20T16:22:32.541Z,26.50
2022-08-20T16:25:03.828Z,25.67
2022-08-20T16:27:36.644Z,27.20
2022-08-20T16:30:09.855Z,29.68
2022-08-20T16:33:01.424Z,29.82
2022-08-20T16:36:04.778Z,31.48
2022-08-20T16:38:43.619Z,32.34
2022-08-20T16:41:20.251Z,32.90
2022-08-20T16:44:08.646Z,33.00
2022-08-20T16:46:47.745Z,34.59
2022-08-20T16:49:18.027Z,34.74
2022-08-20T16:51:55.823Z,32.17
2022-08-20T16:54:29.487Z,34.11
2022-08-20T16:57:06.947Z,33.27
2022-08-20T17:00:16.234Z,31.18
2022-08-20T17:03:10.879Z,30.54
2022-08-20T17:05:48.860Z,33.65
2022-08-20T17:08:25.982Z,34.60
2022-08-20T17:11:03.418Z,33.78
2022-08-20T17:13:38.150Z,32.53
2022-08-20T17:16:10.402Z,30.53
2022-08-20T17:18:44.480Z,32.08
2022-08-20T17:21:14.480Z,32.41
2022-08-20T17:23:56.238Z,29.87
2022-08-20T17:26:42.453Z,30.81
2022-08-20T17:29:22.530Z,30.78
2022-08-20T17:31:59.069Z,33.60
2022-08-20T17:34:44.062Z,34.23
2022-08-20T17:37:34.418Z,33.95
2022-08-20T17:40:20.601Z,33.42
2022-08-20T17:42:59.446Z,34.66
2022-08-20T17:45:32.904Z,32.09
2022-08-20T17:48:04.948Z,30.31
2022-08-20T17:50:39.976Z,30.99
2022-08-20T17:53:30.055Z,31.42
2022-08-20T17:56:04.325Z,30.57
2022-08-20T17:58:54.853Z,29.93
2022-08-20T18:01:26.925Z,31.57
2022-08-20T18:03:57.390Z,32.93
2022-08-20T18:06:49.426Z,33.76
2022-08-20T18:09:34.187Z,32.67
2022-08-20T18:12:36.500Z,31.53
2022-08-20T18:15:27.326Z,30.34
2022-08-20T18:18:12.401Z,32.12
2022-08-20T18:21:15.141Z,31.63
2022-08-20T18:23:58.236Z,33.23
2022-08-20T18:26:50.504Z,33.27
2022-08-20T18:29:35.759Z,31.72
2022-08-20T18:32:39.024Z,32.85
2022-08-20T18:35:19.896Z,32.57
2022-08-20T18:37:51.211Z,32.85
2022-08-20T18:40:34.458Z,33.24
2022-08-20T18:43:17.188Z,33.54
2022-08-20T18:45:47.176Z,32.16
2022-08-20T18:48:23.844Z,31.79
2022-08-20T18:50:58.020Z,31.36
2022-08-20T18:53:34.453Z,31.96
2022-08-20T18:56:12.851Z,31.99
2022-08-20T18:59:14.969Z,31.09
2022-08-20T19:01:48.227Z,31.16
2022-08-20T19:04:38.960Z,31.36
2022-08-20T19:07:12.873Z,30.56
2022-08-20T19:10:08.182Z,30.39
2022-08-20T19:13:16.321Z,29.99
2022-08-20T19:15:52.203Z,29.87
2022-08-20T19:18:29.356Z,29.61
2022-08-20T19:21:03.481Z,29.92
2022-08-20T19:23:40.018Z,29.98
2022-08-20T19:26:25.247Z,29.32
2022-08-20T19:29:18.280Z,29.50
2022-08-20T19:31:58.178Z,29.78
2022-08-20T19:34:28.734Z,29.98
2022-08-20T19:37:34.335Z,29.98
2022-08-20T19:40:02.166Z,29.98
2022-08-20T19:42:41.907Z,29.68
2022-08-20T19:45:24.132Z,29.89
2022-08-20T19:48:15.399Z,29.88
2022-08-20T19:50:55.997Z,29.73
2022-08-20T19:53:33.867Z,29.83
2022-08-20T19:56:06.038Z,29.48
2022-08-20T19:58:36.944Z,29.55
2022-08-20T20:01:16.781Z,29.12
2022-08-20T20:04:00.170Z,28.96
2022-08-20T20:06:43.878Z,28.43
2022-08-20T20:09:23.298Z,28.69
2022-08-20T20:11:59.058Z,28.18
2022-08-20T20:14:35.414Z,28.16
2022-08-20T20:17:14.995Z,28.08
2022-08-20T20:19:52.554Z,27.74
2022-08-20T20:22:31.376Z,26.83
2022-08-20T20:25:26.361Z,26.61
2022-08-20T20:27:59.919Z,26.60
2022-08-20T20:30:35.522Z,26.29
2022-08-20T20:33:16.824Z,25.99
2022-08-20T20:35:48.512Z,25.74
2022-08-20T20:38:39.078Z,26.16
2022-08-20T20:41:21.928Z,26.06
2022-08-20T20:44:02.437Z,25.92
2022-08-20T20:46:36.094Z,25.82
2022-08-20T20:49:11.654Z,25.20
2022-08-20T20:51:55.349Z,25.23
2022-08-20T20:54:42.330Z,25.18
2022-08-20T20:57:36.473Z,25.01
2022-08-20T21:00:15.047Z,24.69
2022-08-20T21:02:47.335Z,24.55
2022-08-20T21:05:19.465Z,24.40
2022-08-20T21:08:02.205Z,23.67
2022-08-20T21:10:35.983Z,23.28
2022-08-20T21:13:09.192Z,23.22
2022-08-20T21:15:40.631Z,23.57
2022-08-20T21:18:11.436Z,23.39
2022-08-20T21:20:41.480Z,23.36
2022-08-20T21:23:11.945Z,23.30
2022-08-20T21:25:42.280Z,23.18
2022-08-20T21:28:12.713Z,23.10
2022-08-20T21:30:42.331Z,23.01
2022-08-20T21:33:12.676Z,22.95
2022-08-20T21:35:43.519Z,22.90
2022-08-20T21:38:14.029Z,22.76
2022-08-20T21:40:43.894Z,22.72
2022-08-20T21:43:16.723Z,22.71
2022-08-20T21:45:49.712Z,22.64
2022-08-20T21:48:20.149Z,22.65
2022-08-20T21:50:50.230Z,22.56
2022-08-20T21:53:20.760Z,22.58
2022-08-20T21:55:50.258Z,22.52
2022-08-20T21:58:21.815Z,22.49
2022-08-20T22:00:59.543Z,22.35
2022-08-20T22:03:33.897Z,22.35
2022-08-20T22:06:08.073Z,22.33
2022-08-20T22:08:41.283Z,22.26
2022-08-20T22:11:12.679Z,22.04
2022-08-20T22:13:43.608Z,21.92
2022-08-20T22:16:16.906Z,21.87
2022-08-20T22:18:49.228Z,21.72
2022-08-20T22:21:28.194Z,21.38
2022-08-20T22:24:08.479Z,21.55
2022-08-20T22:26:41.399Z,21.54
2022-08-20T22:29:13.413Z,20.73
2022-08-20T22:31:44.766Z,21.19
2022-08-20T22:34:18.623Z,20.79
2022-08-20T22:36:54.402Z,21.00
2022-08-20T22:39:24.992Z,20.98
2022-08-20T22:41:54.836Z,20.94
2022-08-20T22:44:25.623Z,20.92
2022-08-20T22:46:58.217Z,20.92
2022-08-20T22:49:33.745Z,20.95
2022-08-20T22:52:04.082Z,21.00
2022-08-20T22:54:36.737Z,20.96
2022-08-20T22:57:06.943Z,20.65
2022-08-20T22:59:41.404Z,20.88
2022-08-20T23:02:23.495Z,20.59
2022-08-20T23:04:53.989Z,20.73
2022-08-20T23:07:23.941Z,20.80
2022-08-20T23:09:55.176Z,20.80
2022-08-20T23:12:25.866Z,20.72
2022-08-20T23:14:56.295Z,20.78
2022-08-20T23:17:26.436Z,20.78
2022-08-20T23:19:56.859Z,20.76
2022-08-20T23:22:26.966Z,20.64
2022-08-20T23:25:00.422Z,20.65
2022-08-20T23:27:30.883Z,20.58
2022-08-20T23:30:01.601Z,20.23
2022-08-20T23:32:31.720Z,19.97
2022-08-20T23:35:02.178Z,20.29
2022-08-20T23:37:33.286Z,19.90
2022-08-20T23:40:04.023Z,20.19
2022-08-20T23:42:33.733Z,20.27
2022-08-20T23:45:03.567Z,20.24
2022-08-20T23:47:34.376Z,20.25
2022-08-20T23:50:06.441Z,19.81
2022-08-20T23:52:37.063Z,19.52
2022-08-20T23:55:07.711Z,19.09
2022-08-20T23:57:38.836Z,19.09
